Memramcook, Canada
Current Conditions -  °F | °C
As of 12:00 PM on Thursday 30 Oct 2014 (Local Time) from CYQM Reporting Station
Broken Clouds Broken Clouds  
Wind Chill: 43°   Ceiling: 14000
Heat Index: 48°   Visibility: 15mi
Dew Point: 41°   Wind: 13mph
Humidity: 76%   Direction: 270°W
Pressure: 29.78"   Gusts: NA
Location:  46.01°N, 64.54°W
Report Text: CYQM 301500Z 27011KT 15SM FEW019 BKN140 BKN220 09/05 A2978 RMK CU2AC3CI2 SLP084
Loading
Personal Weather Stations






























Interactive Weather Map
Tropical Storm Tracking
New forecast layout! Learn more

10-Day Weather Forecast

Advertisements
Track Severe Weather on mobile